sensor_id;sensor_type;location;lat;lon;timestamp;P1;durP1;ratioP1;P2;durP2;ratioP2
42802;SDS011;28447;48.682;9.022;2023-04-15T04:01:56;8.60;;;5.23;;
42802;SDS011;28447;48.682;9.022;2023-04-15T04:04:22;12.40;;;5.60;;
42802;SDS011;28447;48.682;9.022;2023-04-15T04:06:49;9.43;;;5.50;;
42802;SDS011;28447;48.682;9.022;2023-04-15T04:09:15;8.63;;;5.20;;
42802;SDS011;28447;48.682;9.022;2023-04-15T04:11:40;8.90;;;5.87;;
42802;SDS011;28447;48.682;9.022;2023-04-15T04:14:06;7.67;;;4.67;;
42802;SDS011;28447;48.682;9.022;2023-04-15T04:16:31;10.07;;;4.97;;
42802;SDS011;28447;48.682;9.022;2023-04-15T04:18:59;10.73;;;5.27;;
42802;SDS011;28447;48.682;9.022;2023-04-15T04:21:25;11.73;;;4.87;;
42802;SDS011;28447;48.682;9.022;2023-04-15T04:23:52;9.40;;;4.90;;
42802;SDS011;28447;48.682;9.022;2023-04-15T04:26:18;6.67;;;4.87;;
42802;SDS011;28447;48.682;9.022;2023-04-15T04:28:43;9.07;;;5.00;;
42802;SDS011;28447;48.682;9.022;2023-04-15T04:31:09;8.97;;;5.90;;
42802;SDS011;28447;48.682;9.022;2023-04-15T04:33:35;13.93;;;5.00;;
42802;SDS011;28447;48.682;9.022;2023-04-15T04:36:01;9.00;;;5.30;;
42802;SDS011;28447;48.682;9.022;2023-04-15T04:38:27;15.73;;;5.97;;
42802;SDS011;28447;48.682;9.022;2023-04-15T04:40:52;8.30;;;4.97;;
42802;SDS011;28447;48.682;9.022;2023-04-15T04:43:18;8.87;;;5.37;;
42802;SDS011;28447;48.682;9.022;2023-04-15T04:45:44;7.17;;;5.20;;
42802;SDS011;28447;48.682;9.022;2023-04-15T04:48:09;10.30;;;5.40;;
42802;SDS011;28447;48.682;9.022;2023-04-15T04:50:35;10.57;;;5.97;;
42802;SDS011;28447;48.682;9.022;2023-04-15T04:53:01;9.10;;;5.27;;
42802;SDS011;28447;48.682;9.022;2023-04-15T04:55:28;10.17;;;5.30;;
42802;SDS011;28447;48.682;9.022;2023-04-15T04:57:53;6.57;;;4.60;;
42802;SDS011;28447;48.682;9.022;2023-04-15T05:00:20;8.90;;;5.60;;
42802;SDS011;28447;48.682;9.022;2023-04-15T05:02:45;12.70;;;7.27;;
42802;SDS011;28447;48.682;9.022;2023-04-15T05:05:11;11.43;;;6.20;;
42802;SDS011;28447;48.682;9.022;2023-04-15T05:07:37;7.57;;;5.50;;
42802;SDS011;28447;48.682;9.022;2023-04-15T05:10:03;9.67;;;6.77;;
42802;SDS011;28447;48.682;9.022;2023-04-15T05:12:30;10.60;;;5.80;;
42802;SDS011;28447;48.682;9.022;2023-04-15T05:14:56;12.47;;;5.67;;
42802;SDS011;28447;48.682;9.022;2023-04-15T05:17:22;13.00;;;8.87;;
42802;SDS011;28447;48.682;9.022;2023-04-15T05:19:48;17.47;;;8.70;;
42802;SDS011;28447;48.682;9.022;2023-04-15T05:22:13;18.03;;;8.67;;
42802;SDS011;28447;48.682;9.022;2023-04-15T05:24:39;13.00;;;7.27;;
42802;SDS011;28447;48.682;9.022;2023-04-15T05:27:07;14.47;;;8.27;;
42802;SDS011;28447;48.682;9.022;2023-04-15T05:29:34;13.03;;;7.90;;
42802;SDS011;28447;48.682;9.022;2023-04-15T05:32:00;13.70;;;8.17;;
42802;SDS011;28447;48.682;9.022;2023-04-15T05:34:25;11.27;;;7.60;;
42802;SDS011;28447;48.682;9.022;2023-04-15T05:36:51;19.20;;;8.70;;
42802;SDS011;28447;48.682;9.022;2023-04-15T05:39:17;10.30;;;6.70;;
42802;SDS011;28447;48.682;9.022;2023-04-15T05:41:43;14.93;;;7.30;;
42802;SDS011;28447;48.682;9.022;2023-04-15T05:44:08;9.60;;;7.53;;
42802;SDS011;28447;48.682;9.022;2023-04-15T05:46:34;10.73;;;6.80;;
42802;SDS011;28447;48.682;9.022;2023-04-15T05:49:00;13.40;;;5.97;;
42802;SDS011;28447;48.682;9.022;2023-04-15T05:51:25;12.73;;;7.70;;
42802;SDS011;28447;48.682;9.022;2023-04-15T05:53:51;10.80;;;7.47;;
42802;SDS011;28447;48.682;9.022;2023-04-15T05:56:17;9.93;;;7.83;;
42802;SDS011;28447;48.682;9.022;2023-04-15T05:58:44;10.60;;;7.43;;
42802;SDS011;28447;48.682;9.022;2023-04-15T06:01:11;11.10;;;8.23;;
42802;SDS011;28447;48.682;9.022;2023-04-15T06:03:38;12.13;;;9.70;;
42802;SDS011;28447;48.682;9.022;2023-04-15T06:06:04;10.03;;;7.33;;
42802;SDS011;28447;48.682;9.022;2023-04-15T06:08:29;10.53;;;7.03;;
42802;SDS011;28447;48.682;9.022;2023-04-15T06:10:55;11.43;;;7.57;;
42802;SDS011;28447;48.682;9.022;2023-04-15T06:13:22;14.53;;;7.80;;
42802;SDS011;28447;48.682;9.022;2023-04-15T06:15:48;10.77;;;7.37;;
42802;SDS011;28447;48.682;9.022;2023-04-15T06:18:13;14.80;;;9.03;;
42802;SDS011;28447;48.682;9.022;2023-04-15T06:20:39;11.23;;;8.03;;
42802;SDS011;28447;48.682;9.022;2023-04-15T06:23:05;16.33;;;8.23;;
42802;SDS011;28447;48.682;9.022;2023-04-15T06:25:32;11.73;;;8.05;;
42802;SDS011;28447;48.682;9.022;2023-04-15T06:27:59;15.30;;;7.00;;
42802;SDS011;28447;48.682;9.022;2023-04-15T06:30:25;12.30;;;7.20;;
42802;SDS011;28447;48.682;9.022;2023-04-15T06:32:51;9.50;;;6.43;;
42802;SDS011;28447;48.682;9.022;2023-04-15T06:35:17;10.60;;;6.87;;
42802;SDS011;28447;48.682;9.022;2023-04-15T06:37:43;14.10;;;7.80;;
42802;SDS011;28447;48.682;9.022;2023-04-15T06:40:08;13.70;;;6.63;;
42802;SDS011;28447;48.682;9.022;2023-04-15T06:42:38;12.50;;;8.50;;
42802;SDS011;28447;48.682;9.022;2023-04-15T06:45:04;12.47;;;7.17;;
42802;SDS011;28447;48.682;9.022;2023-04-15T06:47:30;10.93;;;8.97;;
42802;SDS011;28447;48.682;9.022;2023-04-15T06:49:56;14.43;;;7.83;;
42802;SDS011;28447;48.682;9.022;2023-04-15T06:52:22;13.83;;;7.90;;
42802;SDS011;28447;48.682;9.022;2023-04-15T06:54:48;14.90;;;8.10;;
42802;SDS011;28447;48.682;9.022;2023-04-15T06:57:13;10.20;;;6.90;;
42802;SDS011;28447;48.682;9.022;2023-04-15T06:59:39;9.17;;;6.57;;
42802;SDS011;28447;48.682;9.022;2023-04-15T07:02:05;13.63;;;7.40;;
42802;SDS011;28447;48.682;9.022;2023-04-15T07:04:35;12.00;;;7.63;;
42802;SDS011;28447;48.682;9.022;2023-04-15T07:07:01;12.03;;;6.30;;
42802;SDS011;28447;48.682;9.022;2023-04-15T07:09:26;8.20;;;5.93;;
42802;SDS011;28447;48.682;9.022;2023-04-15T07:11:52;9.03;;;5.07;;
42802;SDS011;28447;48.682;9.022;2023-04-15T07:14:17;5.50;;;4.60;;
42802;SDS011;28447;48.682;9.022;2023-04-15T07:16:43;7.37;;;5.20;;
42802;SDS011;28447;48.682;9.022;2023-04-15T07:19:09;7.87;;;4.40;;
42802;SDS011;28447;48.682;9.022;2023-04-15T07:21:37;13.30;;;4.87;;
42802;SDS011;28447;48.682;9.022;2023-04-15T07:24:03;7.93;;;4.37;;
42802;SDS011;28447;48.682;9.022;2023-04-15T07:26:30;6.20;;;3.70;;
42802;SDS011;28447;48.682;9.022;2023-04-15T07:28:55;8.43;;;4.90;;
42802;SDS011;28447;48.682;9.022;2023-04-15T07:31:21;8.67;;;3.97;;
42802;SDS011;28447;48.682;9.022;2023-04-15T07:33:47;6.93;;;3.80;;
42802;SDS011;28447;48.682;9.022;2023-04-15T07:36:12;6.83;;;3.90;;
42802;SDS011;28447;48.682;9.022;2023-04-15T07:38:39;6.47;;;3.80;;
42802;SDS011;28447;48.682;9.022;2023-04-15T07:41:04;7.87;;;3.77;;
42802;SDS011;28447;48.682;9.022;2023-04-15T07:43:30;7.93;;;4.20;;
42802;SDS011;28447;48.682;9.022;2023-04-15T07:45:56;4.37;;;3.33;;
42802;SDS011;28447;48.682;9.022;2023-04-15T07:48:21;8.03;;;4.00;;
42802;SDS011;28447;48.682;9.022;2023-04-15T07:50:47;5.70;;;3.63;;
42802;SDS011;28447;48.682;9.022;2023-04-15T07:53:13;6.70;;;4.20;;
42802;SDS011;28447;48.682;9.022;2023-04-15T07:55:39;7.77;;;4.17;;
42802;SDS011;28447;48.682;9.022;2023-04-15T07:58:05;10.23;;;3.90;;
42802;SDS011;28447;48.682;9.022;2023-04-15T08:00:30;7.13;;;3.93;;
42802;SDS011;28447;48.682;9.022;2023-04-15T08:02:56;6.20;;;3.87;;
42802;SDS011;28447;48.682;9.022;2023-04-15T08:05:23;5.90;;;4.17;;
42802;SDS011;28447;48.682;9.022;2023-04-15T08:07:50;18.83;;;5.00;;
42802;SDS011;28447;48.682;9.022;2023-04-15T08:10:15;5.43;;;3.70;;
42802;SDS011;28447;48.682;9.022;2023-04-15T08:12:41;4.60;;;3.23;;
42802;SDS011;28447;48.682;9.022;2023-04-15T08:15:07;3.67;;;3.20;;
42802;SDS011;28447;48.682;9.022;2023-04-15T08:17:35;6.63;;;3.83;;
42802;SDS011;28447;48.682;9.022;2023-04-15T08:20:00;7.27;;;3.53;;
42802;SDS011;28447;48.682;9.022;2023-04-15T08:22:28;4.50;;;3.50;;
42802;SDS011;28447;48.682;9.022;2023-04-15T08:24:54;4.17;;;2.90;;
42802;SDS011;28447;48.682;9.022;2023-04-15T08:27:19;4.90;;;3.60;;
42802;SDS011;28447;48.682;9.022;2023-04-15T08:29:45;7.00;;;3.80;;
42802;SDS011;28447;48.682;9.022;2023-04-15T08:32:12;8.00;;;4.23;;
42802;SDS011;28447;48.682;9.022;2023-04-15T08:34:37;10.70;;;3.50;;
42802;SDS011;28447;48.682;9.022;2023-04-15T08:37:03;9.50;;;3.17;;
42802;SDS011;28447;48.682;9.022;2023-04-15T08:39:29;6.40;;;3.57;;
42802;SDS011;28447;48.682;9.022;2023-04-15T08:42:01;8.93;;;3.20;;
42802;SDS011;28447;48.682;9.022;2023-04-15T08:44:34;5.13;;;3.43;;
42802;SDS011;28447;48.682;9.022;2023-04-15T08:47:01;7.47;;;3.70;;
42802;SDS011;28447;48.682;9.022;2023-04-15T08:49:27;5.10;;;2.70;;
42802;SDS011;28447;48.682;9.022;2023-04-15T08:51:54;6.23;;;3.17;;
42802;SDS011;28447;48.682;9.022;2023-04-15T08:54:22;4.00;;;2.73;;
42802;SDS011;28447;48.682;9.022;2023-04-15T08:56:48;5.70;;;2.93;;
42802;SDS011;28447;48.682;9.022;2023-04-15T08:59:14;3.53;;;2.73;;
42802;SDS011;28447;48.682;9.022;2023-04-15T09:01:40;2.90;;;2.33;;
42802;SDS011;28447;48.682;9.022;2023-04-15T09:04:06;6.67;;;2.70;;
42802;SDS011;28447;48.682;9.022;2023-04-15T09:06:33;3.60;;;2.73;;
42802;SDS011;28447;48.682;9.022;2023-04-15T09:08:59;5.00;;;2.40;;
42802;SDS011;28447;48.682;9.022;2023-04-15T09:11:24;4.47;;;2.80;;
42802;SDS011;28447;48.682;9.022;2023-04-15T09:13:51;4.10;;;2.40;;
42802;SDS011;28447;48.682;9.022;2023-04-15T09:16:16;4.20;;;2.90;;
42802;SDS011;28447;48.682;9.022;2023-04-15T09:18:42;3.33;;;2.67;;
42802;SDS011;28447;48.682;9.022;2023-04-15T09:21:12;3.60;;;2.70;;
42802;SDS011;28447;48.682;9.022;2023-04-15T09:23:57;3.77;;;2.47;;
42802;SDS011;28447;48.682;9.022;2023-04-15T09:26:34;3.13;;;2.77;;
42802;SDS011;28447;48.682;9.022;2023-04-15T09:29:10;3.33;;;2.43;;
42802;SDS011;28447;48.682;9.022;2023-04-15T09:31:38;3.33;;;2.07;;
42802;SDS011;28447;48.682;9.022;2023-04-15T09:34:05;6.37;;;2.73;;
42802;SDS011;28447;48.682;9.022;2023-04-15T09:36:41;7.97;;;3.10;;
42802;SDS011;28447;48.682;9.022;2023-04-15T09:39:17;3.33;;;2.80;;
42802;SDS011;28447;48.682;9.022;2023-04-15T09:41:44;3.93;;;2.77;;
42802;SDS011;28447;48.682;9.022;2023-04-15T09:44:22;3.60;;;2.20;;
42802;SDS011;28447;48.682;9.022;2023-04-15T09:46:51;2.93;;;2.37;;
42802;SDS011;28447;48.682;9.022;2023-04-15T09:49:17;4.17;;;2.57;;
42802;SDS011;28447;48.682;9.022;2023-04-15T09:51:43;4.87;;;2.63;;
42802;SDS011;28447;48.682;9.022;2023-04-15T09:54:09;2.70;;;2.20;;
42802;SDS011;28447;48.682;9.022;2023-04-15T09:56:35;4.63;;;3.07;;
42802;SDS011;28447;48.682;9.022;2023-04-15T09:59:03;4.43;;;2.80;;
42802;SDS011;28447;48.682;9.022;2023-04-15T10:01:30;3.33;;;2.30;;
42802;SDS011;28447;48.682;9.022;2023-04-15T10:03:56;3.70;;;2.80;;
42802;SDS011;28447;48.682;9.022;2023-04-15T10:06:25;6.00;;;3.50;;
42802;SDS011;28447;48.682;9.022;2023-04-15T10:08:51;4.23;;;2.77;;
42802;SDS011;28447;48.682;9.022;2023-04-15T10:11:27;5.03;;;2.50;;
42802;SDS011;28447;48.682;9.022;2023-04-15T10:13:54;4.23;;;2.80;;
42802;SDS011;28447;48.682;9.022;2023-04-15T10:16:23;7.53;;;2.43;;
42802;SDS011;28447;48.682;9.022;2023-04-15T10:18:55;5.23;;;2.80;;
42802;SDS011;28447;48.682;9.022;2023-04-15T10:21:22;9.00;;;2.77;;
42802;SDS011;28447;48.682;9.022;2023-04-15T10:23:50;6.33;;;3.30;;
42802;SDS011;28447;48.682;9.022;2023-04-15T10:26:16;21.03;;;13.40;;
42802;SDS011;28447;48.682;9.022;2023-04-15T10:28:45;7.07;;;3.10;;
42802;SDS011;28447;48.682;9.022;2023-04-15T10:31:27;5.70;;;2.50;;
42802;SDS011;28447;48.682;9.022;2023-04-15T10:33:56;4.33;;;2.57;;
42802;SDS011;28447;48.682;9.022;2023-04-15T10:36:27;4.73;;;2.50;;
42802;SDS011;28447;48.682;9.022;2023-04-15T10:38:53;7.80;;;3.47;;
42802;SDS011;28447;48.682;9.022;2023-04-15T10:41:23;6.83;;;2.50;;
42802;SDS011;28447;48.682;9.022;2023-04-15T10:46:39;5.70;;;3.30;;
42802;SDS011;28447;48.682;9.022;2023-04-15T10:49:23;4.40;;;3.00;;
42802;SDS011;28447;48.682;9.022;2023-04-15T10:51:50;8.33;;;2.70;;
42802;SDS011;28447;48.682;9.022;2023-04-15T10:56:50;4.03;;;3.23;;
42802;SDS011;28447;48.682;9.022;2023-04-15T10:59:31;6.70;;;4.17;;
42802;SDS011;28447;48.682;9.022;2023-04-15T11:02:01;6.03;;;3.90;;
42802;SDS011;28447;48.682;9.022;2023-04-15T11:10:03;6.13;;;3.87;;
42802;SDS011;28447;48.682;9.022;2023-04-15T11:12:50;6.60;;;4.30;;
42802;SDS011;28447;48.682;9.022;2023-04-15T11:18:15;9.07;;;4.60;;
42802;SDS011;28447;48.682;9.022;2023-04-15T11:20:49;6.30;;;4.57;;
42802;SDS011;28447;48.682;9.022;2023-04-15T11:23:20;5.37;;;4.00;;
42802;SDS011;28447;48.682;9.022;2023-04-15T11:26:03;6.37;;;4.23;;
42802;SDS011;28447;48.682;9.022;2023-04-15T11:28:35;8.40;;;4.27;;
42802;SDS011;28447;48.682;9.022;2023-04-15T11:31:08;4.13;;;3.67;;
42802;SDS011;28447;48.682;9.022;2023-04-15T11:33:45;5.73;;;3.77;;
42802;SDS011;28447;48.682;9.022;2023-04-15T11:36:18;5.60;;;3.90;;
42802;SDS011;28447;48.682;9.022;2023-04-15T11:38:51;4.17;;;3.77;;
42802;SDS011;28447;48.682;9.022;2023-04-15T11:41:20;4.83;;;3.47;;
42802;SDS011;28447;48.682;9.022;2023-04-15T11:43:47;7.53;;;3.67;;
42802;SDS011;28447;48.682;9.022;2023-04-15T11:46:13;4.10;;;3.30;;
42802;SDS011;28447;48.682;9.022;2023-04-15T11:48:41;7.00;;;2.77;;
42802;SDS011;28447;48.682;9.022;2023-04-15T11:51:10;6.80;;;3.23;;
42802;SDS011;28447;48.682;9.022;2023-04-15T11:53:49;6.13;;;3.43;;
42802;SDS011;28447;48.682;9.022;2023-04-15T11:56:21;9.80;;;4.37;;
42802;SDS011;28447;48.682;9.022;2023-04-15T11:58:50;6.33;;;3.90;;
42802;SDS011;28447;48.682;9.022;2023-04-15T12:01:17;5.13;;;3.53;;
42802;SDS011;28447;48.682;9.022;2023-04-15T12:03:48;8.70;;;3.80;;
42802;SDS011;28447;48.682;9.022;2023-04-15T12:16:32;5.87;;;4.03;;
42802;SDS011;28447;48.682;9.022;2023-04-15T12:18:59;4.70;;;3.67;;
42802;SDS011;28447;48.682;9.022;2023-04-15T12:21:32;7.60;;;4.50;;
42802;SDS011;28447;48.682;9.022;2023-04-15T12:24:00;6.50;;;4.43;;
42802;SDS011;28447;48.682;9.022;2023-04-15T12:26:27;6.77;;;4.10;;
42802;SDS011;28447;48.682;9.022;2023-04-15T12:29:17;6.40;;;4.30;;
42802;SDS011;28447;48.682;9.022;2023-04-15T12:34:32;6.30;;;5.37;;
42802;SDS011;28447;48.682;9.022;2023-04-15T12:37:01;7.13;;;4.43;;
42802;SDS011;28447;48.682;9.022;2023-04-15T12:39:29;8.40;;;5.50;;
42802;SDS011;28447;48.682;9.022;2023-04-15T12:42:05;9.67;;;5.10;;
42802;SDS011;28447;48.682;9.022;2023-04-15T12:44:32;8.77;;;5.33;;
42802;SDS011;28447;48.682;9.022;2023-04-15T12:46:59;7.67;;;5.70;;
42802;SDS011;28447;48.682;9.022;2023-04-15T12:49:26;8.57;;;4.63;;
42802;SDS011;28447;48.682;9.022;2023-04-15T12:51:53;11.30;;;5.13;;
42802;SDS011;28447;48.682;9.022;2023-04-15T12:54:23;6.20;;;4.37;;
42802;SDS011;28447;48.682;9.022;2023-04-15T12:56:50;6.83;;;4.30;;
42802;SDS011;28447;48.682;9.022;2023-04-15T12:59:19;16.53;;;5.30;;
42802;SDS011;28447;48.682;9.022;2023-04-15T13:01:54;7.40;;;5.47;;
42802;SDS011;28447;48.682;9.022;2023-04-15T13:04:20;7.97;;;5.37;;
42802;SDS011;28447;48.682;9.022;2023-04-15T13:06:46;6.80;;;4.70;;
42802;SDS011;28447;48.682;9.022;2023-04-15T13:09:12;6.50;;;5.00;;
42802;SDS011;28447;48.682;9.022;2023-04-15T13:11:38;7.03;;;4.53;;
42802;SDS011;28447;48.682;9.022;2023-04-15T13:14:07;5.57;;;4.20;;
42802;SDS011;28447;48.682;9.022;2023-04-15T13:16:35;7.43;;;4.27;;
42802;SDS011;28447;48.682;9.022;2023-04-15T13:19:01;7.00;;;3.73;;
42802;SDS011;28447;48.682;9.022;2023-04-15T13:21:28;6.17;;;4.87;;
42802;SDS011;28447;48.682;9.022;2023-04-15T13:23:59;9.67;;;5.10;;
42802;SDS011;28447;48.682;9.022;2023-04-15T13:26:25;6.27;;;4.90;;
42802;SDS011;28447;48.682;9.022;2023-04-15T13:28:52;7.87;;;4.80;;
42802;SDS011;28447;48.682;9.022;2023-04-15T13:31:17;9.33;;;4.70;;
42802;SDS011;28447;48.682;9.022;2023-04-15T13:33:43;10.53;;;4.40;;
42802;SDS011;28447;48.682;9.022;2023-04-15T13:36:10;4.63;;;4.07;;
42802;SDS011;28447;48.682;9.022;2023-04-15T13:38:35;6.50;;;4.30;;
42802;SDS011;28447;48.682;9.022;2023-04-15T13:41:05;4.40;;;3.73;;
42802;SDS011;28447;48.682;9.022;2023-04-15T13:43:32;7.67;;;4.53;;
42802;SDS011;28447;48.682;9.022;2023-04-15T13:45:58;7.57;;;4.80;;
42802;SDS011;28447;48.682;9.022;2023-04-15T13:48:23;7.50;;;4.40;;
42802;SDS011;28447;48.682;9.022;2023-04-15T13:50:49;7.10;;;4.80;;
42802;SDS011;28447;48.682;9.022;2023-04-15T13:53:15;7.70;;;4.77;;
42802;SDS011;28447;48.682;9.022;2023-04-15T13:55:41;5.43;;;4.77;;
42802;SDS011;28447;48.682;9.022;2023-04-15T13:58:10;9.40;;;5.30;;
42802;SDS011;28447;48.682;9.022;2023-04-15T14:00:36;6.73;;;4.60;;
42802;SDS011;28447;48.682;9.022;2023-04-15T14:03:01;5.60;;;5.00;;
42802;SDS011;28447;48.682;9.022;2023-04-15T14:05:27;5.33;;;4.47;;
42802;SDS011;28447;48.682;9.022;2023-04-15T14:07:54;7.00;;;4.90;;
42802;SDS011;28447;48.682;9.022;2023-04-15T14:10:20;4.77;;;3.67;;
42802;SDS011;28447;48.682;9.022;2023-04-15T14:12:46;7.80;;;4.20;;
42802;SDS011;28447;48.682;9.022;2023-04-15T14:15:12;4.03;;;3.47;;
42802;SDS011;28447;48.682;9.022;2023-04-15T14:17:38;6.27;;;3.47;;
42802;SDS011;28447;48.682;9.022;2023-04-15T14:20:06;5.10;;;3.70;;
42802;SDS011;28447;48.682;9.022;2023-04-15T14:22:32;3.93;;;2.17;;
42802;SDS011;28447;48.682;9.022;2023-04-15T14:24:58;3.07;;;1.90;;
42802;SDS011;28447;48.682;9.022;2023-04-15T14:27:24;4.97;;;1.67;;
42802;SDS011;28447;48.682;9.022;2023-04-15T14:29:51;2.30;;;2.10;;
42802;SDS011;28447;48.682;9.022;2023-04-15T14:32:18;2.13;;;1.93;;
42802;SDS011;28447;48.682;9.022;2023-04-15T14:34:44;3.50;;;2.57;;
42802;SDS011;28447;48.682;9.022;2023-04-15T14:37:11;3.53;;;2.20;;
42802;SDS011;28447;48.682;9.022;2023-04-15T14:39:37;2.93;;;2.40;;
42802;SDS011;28447;48.682;9.022;2023-04-15T14:42:03;3.20;;;2.90;;
42802;SDS011;28447;48.682;9.022;2023-04-15T14:44:29;3.07;;;2.67;;
42802;SDS011;28447;48.682;9.022;2023-04-15T14:46:55;4.70;;;2.73;;
42802;SDS011;28447;48.682;9.022;2023-04-15T14:49:21;5.00;;;3.30;;
42802;SDS011;28447;48.682;9.022;2023-04-15T14:51:47;4.47;;;3.70;;
42802;SDS011;28447;48.682;9.022;2023-04-15T14:54:13;4.87;;;3.50;;
42802;SDS011;28447;48.682;9.022;2023-04-15T14:56:41;7.03;;;3.57;;
42802;SDS011;28447;48.682;9.022;2023-04-15T14:59:07;5.00;;;4.00;;
42802;SDS011;28447;48.682;9.022;2023-04-15T15:01:33;3.50;;;3.10;;
42802;SDS011;28447;48.682;9.022;2023-04-15T15:03:58;5.47;;;3.57;;
42802;SDS011;28447;48.682;9.022;2023-04-15T15:06:24;5.10;;;4.03;;
42802;SDS011;28447;48.682;9.022;2023-04-15T15:08:50;4.50;;;3.13;;
42802;SDS011;28447;48.682;9.022;2023-04-15T15:11:16;4.90;;;4.30;;
42802;SDS011;28447;48.682;9.022;2023-04-15T15:13:41;4.87;;;3.77;;
42802;SDS011;28447;48.682;9.022;2023-04-15T15:16:07;8.10;;;3.63;;
42802;SDS011;28447;48.682;9.022;2023-04-15T15:18:34;5.93;;;4.57;;
42802;SDS011;28447;48.682;9.022;2023-04-15T15:21:01;4.90;;;3.70;;
42802;SDS011;28447;48.682;9.022;2023-04-15T15:23:27;5.17;;;3.80;;
42802;SDS011;28447;48.682;9.022;2023-04-15T15:25:52;7.00;;;3.97;;
42802;SDS011;28447;48.682;9.022;2023-04-15T15:28:18;7.57;;;4.37;;
42802;SDS011;28447;48.682;9.022;2023-04-15T15:30:45;4.87;;;4.17;;
42802;SDS011;28447;48.682;9.022;2023-04-15T15:33:11;7.10;;;4.03;;
42802;SDS011;28447;48.682;9.022;2023-04-15T15:35:37;9.00;;;4.40;;
42802;SDS011;28447;48.682;9.022;2023-04-15T15:38:04;5.50;;;4.40;;
42802;SDS011;28447;48.682;9.022;2023-04-15T15:40:31;9.87;;;4.67;;
42802;SDS011;28447;48.682;9.022;2023-04-15T15:42:58;4.73;;;3.63;;
42802;SDS011;28447;48.682;9.022;2023-04-15T15:45:23;4.40;;;4.00;;
42802;SDS011;28447;48.682;9.022;2023-04-15T15:47:49;7.27;;;4.30;;
42802;SDS011;28447;48.682;9.022;2023-04-15T15:50:15;9.47;;;4.33;;
42802;SDS011;28447;48.682;9.022;2023-04-15T15:52:41;6.60;;;4.13;;
42802;SDS011;28447;48.682;9.022;2023-04-15T15:55:07;7.27;;;4.83;;
42802;SDS011;28447;48.682;9.022;2023-04-15T15:57:33;4.27;;;3.73;;
42802;SDS011;28447;48.682;9.022;2023-04-15T15:59:58;5.87;;;3.90;;
42802;SDS011;28447;48.682;9.022;2023-04-15T16:02:24;5.40;;;3.40;;
42802;SDS011;28447;48.682;9.022;2023-04-15T16:04:50;4.03;;;3.03;;
42802;SDS011;28447;48.682;9.022;2023-04-15T16:07:16;4.37;;;3.10;;
42802;SDS011;28447;48.682;9.022;2023-04-15T16:09:42;6.63;;;3.70;;
42802;SDS011;28447;48.682;9.022;2023-04-15T16:12:09;6.43;;;3.67;;
42802;SDS011;28447;48.682;9.022;2023-04-15T16:14:35;4.40;;;3.13;;
42802;SDS011;28447;48.682;9.022;2023-04-15T16:17:03;6.43;;;3.00;;
42802;SDS011;28447;48.682;9.022;2023-04-15T16:19:31;3.70;;;3.03;;
42802;SDS011;28447;48.682;9.022;2023-04-15T16:22:01;5.80;;;3.00;;
42802;SDS011;28447;48.682;9.022;2023-04-15T16:24:27;2.80;;;2.57;;
42802;SDS011;28447;48.682;9.022;2023-04-15T16:26:53;5.17;;;3.47;;
42802;SDS011;28447;48.682;9.022;2023-04-15T16:29:22;4.73;;;2.70;;
42802;SDS011;28447;48.682;9.022;2023-04-15T16:31:49;3.07;;;2.60;;
42802;SDS011;28447;48.682;9.022;2023-04-15T16:34:15;2.90;;;2.57;;
42802;SDS011;28447;48.682;9.022;2023-04-15T16:36:44;4.70;;;2.67;;
42802;SDS011;28447;48.682;9.022;2023-04-15T16:39:09;4.50;;;2.90;;
42802;SDS011;28447;48.682;9.022;2023-04-15T16:41:35;3.73;;;3.10;;
42802;SDS011;28447;48.682;9.022;2023-04-15T16:44:02;3.63;;;2.73;;
42802;SDS011;28447;48.682;9.022;2023-04-15T16:46:30;4.40;;;2.53;;
42802;SDS011;28447;48.682;9.022;2023-04-15T16:48:56;3.63;;;2.67;;
42802;SDS011;28447;48.682;9.022;2023-04-15T16:51:23;3.80;;;3.27;;
42802;SDS011;28447;48.682;9.022;2023-04-15T16:53:49;3.30;;;2.87;;
42802;SDS011;28447;48.682;9.022;2023-04-15T16:56:15;5.30;;;3.10;;
42802;SDS011;28447;48.682;9.022;2023-04-15T16:58:41;4.20;;;2.90;;
42802;SDS011;28447;48.682;9.022;2023-04-15T17:01:07;10.73;;;3.20;;
42802;SDS011;28447;48.682;9.022;2023-04-15T17:03:35;6.40;;;3.73;;
42802;SDS011;28447;48.682;9.022;2023-04-15T17:06:01;5.73;;;3.63;;
42802;SDS011;28447;48.682;9.022;2023-04-15T17:08:35;6.80;;;3.50;;
42802;SDS011;28447;48.682;9.022;2023-04-15T17:11:04;6.07;;;3.80;;
42802;SDS011;28447;48.682;9.022;2023-04-15T17:13:31;8.77;;;3.27;;
42802;SDS011;28447;48.682;9.022;2023-04-15T17:15:58;4.77;;;3.20;;
42802;SDS011;28447;48.682;9.022;2023-04-15T17:18:24;3.83;;;3.10;;
42802;SDS011;28447;48.682;9.022;2023-04-15T17:20:52;4.10;;;3.63;;
42802;SDS011;28447;48.682;9.022;2023-04-15T17:23:20;3.80;;;3.10;;
42802;SDS011;28447;48.682;9.022;2023-04-15T17:25:45;4.03;;;3.33;;
42802;SDS011;28447;48.682;9.022;2023-04-15T17:28:11;4.60;;;3.33;;
42802;SDS011;28447;48.682;9.022;2023-04-15T17:30:38;4.70;;;3.20;;
42802;SDS011;28447;48.682;9.022;2023-04-15T17:33:07;3.13;;;2.83;;
42802;SDS011;28447;48.682;9.022;2023-04-15T17:35:35;4.43;;;3.13;;
42802;SDS011;28447;48.682;9.022;2023-04-15T17:38:01;3.90;;;3.00;;
42802;SDS011;28447;48.682;9.022;2023-04-15T17:40:29;4.17;;;3.30;;
42802;SDS011;28447;48.682;9.022;2023-04-15T17:42:55;5.63;;;3.93;;
42802;SDS011;28447;48.682;9.022;2023-04-15T17:45:22;4.87;;;3.20;;
42802;SDS011;28447;48.682;9.022;2023-04-15T17:47:49;5.10;;;3.40;;
42802;SDS011;28447;48.682;9.022;2023-04-15T17:50:19;4.73;;;3.83;;
42802;SDS011;28447;48.682;9.022;2023-04-15T17:52:45;4.90;;;4.00;;
42802;SDS011;28447;48.682;9.022;2023-04-15T17:55:12;4.47;;;3.33;;
42802;SDS011;28447;48.682;9.022;2023-04-15T17:57:38;4.70;;;3.77;;
42802;SDS011;28447;48.682;9.022;2023-04-15T18:00:04;4.73;;;3.43;;
42802;SDS011;28447;48.682;9.022;2023-04-15T18:02:30;4.47;;;3.63;;
42802;SDS011;28447;48.682;9.022;2023-04-15T18:04:56;6.30;;;4.20;;
42802;SDS011;28447;48.682;9.022;2023-04-15T18:07:22;5.50;;;4.07;;
42802;SDS011;28447;48.682;9.022;2023-04-15T18:09:48;4.23;;;3.50;;
42802;SDS011;28447;48.682;9.022;2023-04-15T18:12:14;4.90;;;4.00;;
42802;SDS011;28447;48.682;9.022;2023-04-15T18:14:48;5.33;;;4.30;;
42802;SDS011;28447;48.682;9.022;2023-04-15T18:17:13;6.30;;;4.30;;
42802;SDS011;28447;48.682;9.022;2023-04-15T18:19:39;4.30;;;3.80;;
42802;SDS011;28447;48.682;9.022;2023-04-15T18:22:07;4.90;;;3.83;;
42802;SDS011;28447;48.682;9.022;2023-04-15T18:24:33;5.53;;;3.70;;
42802;SDS011;28447;48.682;9.022;2023-04-15T18:27:00;4.20;;;3.70;;
42802;SDS011;28447;48.682;9.022;2023-04-15T18:29:26;28.37;;;4.50;;
42802;SDS011;28447;48.682;9.022;2023-04-15T18:32:04;5.07;;;4.10;;
42802;SDS011;28447;48.682;9.022;2023-04-15T18:34:30;7.60;;;4.50;;
42802;SDS011;28447;48.682;9.022;2023-04-15T18:36:56;7.27;;;4.43;;
42802;SDS011;28447;48.682;9.022;2023-04-15T18:39:22;6.43;;;4.40;;
42802;SDS011;28447;48.682;9.022;2023-04-15T18:41:49;7.83;;;5.70;;
42802;SDS011;28447;48.682;9.022;2023-04-15T18:44:15;7.03;;;4.90;;
42802;SDS011;28447;48.682;9.022;2023-04-15T18:46:41;7.10;;;4.93;;
42802;SDS011;28447;48.682;9.022;2023-04-15T18:49:06;7.20;;;4.97;;
42802;SDS011;28447;48.682;9.022;2023-04-15T18:51:32;7.13;;;5.83;;
42802;SDS011;28447;48.682;9.022;2023-04-15T18:53:58;11.43;;;5.80;;
42802;SDS011;28447;48.682;9.022;2023-04-15T18:56:23;8.70;;;5.73;;
42802;SDS011;28447;48.682;9.022;2023-04-15T18:58:49;8.90;;;5.90;;
42802;SDS011;28447;48.682;9.022;2023-04-15T19:01:15;7.83;;;5.30;;
42802;SDS011;28447;48.682;9.022;2023-04-15T19:03:41;7.97;;;5.97;;
42802;SDS011;28447;48.682;9.022;2023-04-15T19:06:06;7.70;;;5.97;;
42802;SDS011;28447;48.682;9.022;2023-04-15T19:08:32;8.40;;;6.33;;
42802;SDS011;28447;48.682;9.022;2023-04-15T19:10:58;11.50;;;6.80;;
42802;SDS011;28447;48.682;9.022;2023-04-15T19:13:24;8.70;;;6.63;;